Time;durP1;ratioP1;P1;durP2;ratioP2;P2;SDS_P1;SDS_P2;PMS_P1;PMS_P2;Temp;Humidity;BMP_temperature;BMP_pressure;BME280_temperature;BME280_humidity;BME280_pressure;Samples;Min_cycle;Max_cycle;Signal;HPM_P1;HPM_P2
2022/10/05 00:01:29;;;;;;;14.90;9.57;;;13.20;99.90;;;;;;5034187;28;20045;-77
2022/10/05 00:04:20;;;;;;;18.73;10.27;;;13.20;99.90;;;;;;5019162;28;20041;-76
2022/10/05 00:06:48;;;;;;;;;;;13.20;99.90;;;;;;5029583;28;20084;-76
2022/10/05 00:09:17;;;;;;;20.70;11.00;;;13.10;99.90;;;;;;5034072;28;19909;-77
2022/10/05 00:11:44;;;;;;;27.40;13.60;;;13.00;99.90;;;;;;5033677;28;20132;-77
2022/10/05 00:14:25;;;;;;;29.52;13.77;;;12.90;99.90;;;;;;5038885;28;20140;-77
2022/10/05 00:16:51;;;;;;;;;;;12.80;99.90;;;;;;5054572;28;20075;-77
2022/10/05 00:19:31;;;;;;;15.75;8.15;;;12.70;99.90;;;;;;5053944;28;19909;-77
2022/10/05 00:22:18;;;;;;;26.70;10.02;;;12.60;99.90;;;;;;5053764;28;20131;-77
2022/10/05 00:24:45;;;;;;;16.35;9.68;;;12.60;99.90;;;;;;5053844;28;20573;-77
2022/10/05 00:27:16;;;;;;;16.38;9.70;;;12.80;99.90;;;;;;5054039;28;20041;-77
2022/10/05 00:29:43;;;;;;;16.27;9.85;;;12.90;99.90;;;;;;5053812;28;20132;-77
2022/10/05 00:32:09;;;;;;;23.10;11.00;;;12.70;99.90;;;;;;5052478;28;20079;-77
2022/10/05 00:34:35;;;;;;;15.07;9.40;;;12.80;99.90;;;;;;5053753;28;20029;-77
2022/10/05 00:37:02;;;;;;;18.88;10.20;;;12.60;99.90;;;;;;5053630;28;20110;-77
2022/10/05 00:39:28;;;;;;;16.10;9.55;;;12.50;99.90;;;;;;5053452;28;20068;-77
2022/10/05 00:42:24;;;;;;;18.52;10.02;;;12.50;99.90;;;;;;5053266;28;20443;-78
2022/10/05 00:45:12;;;;;;;14.45;9.45;;;12.40;99.90;;;;;;5053610;28;20036;-77
2022/10/05 00:48:00;;;;;;;13.45;8.60;;;12.30;99.90;;;;;;5053564;28;20044;-77
2022/10/05 00:50:48;;;;;;;15.82;9.25;;;12.20;99.90;;;;;;5053579;28;20033;-77
2022/10/05 00:53:47;;;;;;;13.50;8.55;;;12.20;99.90;;;;;;5053482;28;20033;-77
2022/10/05 00:56:54;;;;;;;13.57;8.70;;;12.10;99.90;;;;;;5053483;28;20057;-78
2022/10/05 00:59:38;;;;;;;13.38;8.07;;;12.10;99.90;;;;;;5019611;28;20037;-77
2022/10/05 01:02:39;;;;;;;15.70;9.02;;;12.00;99.90;;;;;;5053114;28;20052;-78
2022/10/05 01:05:33;;;;;;;14.27;9.15;;;12.00;99.90;;;;;;5053100;28;20045;-78
2022/10/05 01:08:11;;;;;;;13.75;8.68;;;12.00;99.90;;;;;;5047521;28;20497;-77
2022/10/05 01:10:52;;;;;;;15.18;8.98;;;12.00;99.90;;;;;;5052740;28;20068;-78
2022/10/05 01:13:33;;;;;;;16.38;11.38;;;12.00;99.90;;;;;;5053347;28;20049;-77
2022/10/05 01:16:21;;;;;;;14.63;9.45;;;12.00;99.90;;;;;;5053232;28;20119;-78
2022/10/05 01:19:13;;;;;;;17.92;10.18;;;12.00;99.90;;;;;;5051888;28;20033;-78
2022/10/05 01:21:51;;;;;;;17.48;10.25;;;12.00;99.90;;;;;;5051914;28;20488;-77
2022/10/05 01:25:10;;;;;;;17.83;10.13;;;12.00;99.90;;;;;;5055636;28;20049;-78
2022/10/05 01:27:57;;;;;;;16.20;10.40;;;12.00;99.90;;;;;;5034622;28;20076;-77
2022/10/05 01:30:23;;;;;;;16.67;10.48;;;12.00;99.90;;;;;;5028730;28;20075;-78
2022/10/05 01:33:15;;;;;;;18.75;11.20;;;12.10;99.90;;;;;;5050497;28;20642;-78
2022/10/05 01:35:54;;;;;;;19.90;11.55;;;12.20;99.90;;;;;;5056486;28;20048;-78
2022/10/05 01:38:38;;;;;;;18.77;11.55;;;12.30;99.90;;;;;;5056675;28;20057;-78
2022/10/05 01:41:36;;;;;;;20.48;11.35;;;12.40;99.90;;;;;;5056682;28;20047;-78
2022/10/05 01:44:09;;;;;;;19.90;12.23;;;12.50;99.90;;;;;;5056571;28;20481;-77
2022/10/05 01:46:52;;;;;;;20.90;12.93;;;12.50;99.90;;;;;;5056591;28;20037;-77
2022/10/05 01:49:44;;;;;;;21.02;11.50;;;12.50;99.90;;;;;;5055371;28;20045;-77
2022/10/05 01:52:40;;;;;;;18.35;11.52;;;12.50;99.90;;;;;;5056473;28;20036;-76
2022/10/05 01:55:40;;;;;;;17.27;10.88;;;12.40;99.90;;;;;;5056408;28;20041;-77
2022/10/05 01:58:51;;;;;;;21.10;12.30;;;12.30;99.90;;;;;;5056402;28;20124;-76
2022/10/05 02:01:32;;;;;;;22.48;12.80;;;12.40;99.90;;;;;;5056395;28;20041;-77
2022/10/05 02:04:14;;;;;;;;;;;12.40;99.90;;;;;;5056884;28;20431;-77
2022/10/05 02:06:48;;;;;;;20.63;12.85;;;12.50;99.90;;;;;;5056299;28;19940;-77
2022/10/05 02:09:24;;;;;;;19.92;12.05;;;12.50;99.90;;;;;;5055008;28;20076;-78
2022/10/05 02:11:58;;;;;;;20.13;11.82;;;12.30;99.90;;;;;;5056168;28;20523;-77
2022/10/05 02:14:31;;;;;;;21.08;12.27;;;12.20;99.90;;;;;;5056604;28;20144;-77
2022/10/05 02:17:00;;;;;;;22.50;13.13;;;12.30;99.90;;;;;;5056146;28;20500;-77
2022/10/05 02:19:36;;;;;;;24.05;13.50;;;12.20;99.90;;;;;;5056177;28;20094;-78
2022/10/05 02:22:06;;;;;;;22.30;13.20;;;12.20;99.90;;;;;;5055711;28;20053;-78
2022/10/05 02:24:40;;;;;;;22.92;12.75;;;12.10;99.90;;;;;;5055888;28;20119;-77
2022/10/05 02:27:09;;;;;;;18.42;11.65;;;12.00;99.90;;;;;;5055735;28;20086;-78
2022/10/05 02:29:38;;;;;;;22.98;13.18;;;12.00;99.90;;;;;;5055830;28;20501;-77
2022/10/05 02:32:14;;;;;;;23.38;12.80;;;12.10;99.90;;;;;;5054573;28;20040;-77
2022/10/05 02:34:42;;;;;;;23.02;13.05;;;12.10;99.90;;;;;;5055078;28;20043;-77
2022/10/05 02:37:17;;;;;;;20.20;12.35;;;12.10;99.90;;;;;;5054765;28;20114;-77
2022/10/05 02:40:20;;;;;;;22.27;13.20;;;12.10;99.90;;;;;;5054941;28;20033;-77
2022/10/05 02:43:16;;;;;;;20.30;12.15;;;12.20;99.90;;;;;;5055355;28;20047;-78
2022/10/05 02:46:06;;;;;;;23.55;12.30;;;12.20;99.90;;;;;;5055579;28;20033;-78
2022/10/05 02:49:05;;;;;;;20.27;12.13;;;12.20;99.90;;;;;;5055348;28;20040;-77
2022/10/05 02:51:45;;;;;;;21.02;12.35;;;12.20;99.90;;;;;;5054122;28;20028;-77
2022/10/05 02:54:32;;;;;;;25.07;13.30;;;12.30;99.90;;;;;;5054106;28;20037;-78
2022/10/05 02:57:15;;;;;;;22.63;12.90;;;12.30;99.90;;;;;;5055350;28;20044;-78
2022/10/05 02:59:52;;;;;;;23.80;13.48;;;12.30;99.90;;;;;;5055067;28;20505;-78
2022/10/05 03:02:39;;;;;;;22.90;13.27;;;12.40;99.90;;;;;;5054952;28;20056;-78
2022/10/05 03:05:10;;;;;;;22.77;13.10;;;12.30;99.90;;;;;;5054995;28;20102;-77
2022/10/05 03:07:39;;;;;;;24.90;13.43;;;12.30;99.90;;;;;;5055207;28;20041;-78
2022/10/05 03:10:32;;;;;;;26.02;13.82;;;12.30;99.90;;;;;;5055017;28;20037;-77
2022/10/05 03:13:04;;;;;;;21.50;12.60;;;12.30;99.90;;;;;;5053610;28;20122;-78
2022/10/05 03:15:57;;;;;;;26.30;13.57;;;12.20;99.90;;;;;;5054409;28;20361;-77
2022/10/05 03:18:33;;;;;;;24.42;14.18;;;12.30;99.90;;;;;;5053310;28;20056;-77
2022/10/05 03:21:35;;;;;;;23.40;14.05;;;12.20;99.90;;;;;;5054493;28;20094;-79
2022/10/05 03:24:19;;;;;;;20.15;12.88;;;12.10;99.90;;;;;;5054739;28;20071;-78
2022/10/05 03:27:11;;;;;;;24.90;13.73;;;12.10;99.90;;;;;;5054888;28;20037;-77
2022/10/05 03:29:40;;;;;;;23.95;14.50;;;12.10;99.90;;;;;;5044841;28;20037;-78
2022/10/05 03:32:26;;;;;;;26.55;15.00;;;12.00;99.90;;;;;;5054624;28;20079;-78
2022/10/05 03:35:02;;;;;;;25.90;14.68;;;11.90;99.90;;;;;;5054569;28;20041;-77
2022/10/05 03:37:37;;;;;;;29.23;14.13;;;11.90;99.90;;;;;;5054466;28;20036;-78
2022/10/05 03:40:23;;;;;;;24.48;13.63;;;11.80;99.90;;;;;;5054053;28;20041;-78
2022/10/05 03:43:01;;;;;;;27.52;14.30;;;11.80;99.90;;;;;;5054325;28;20052;-78
2022/10/05 03:45:53;;;;;;;26.55;14.00;;;11.80;99.90;;;;;;5053200;28;20491;-79
2022/10/05 03:48:47;;;;;;;23.65;13.90;;;11.90;99.90;;;;;;5054230;28;20123;-78
2022/10/05 03:51:51;;;;;;;24.35;13.60;;;11.90;99.90;;;;;;5054075;28;20394;-79
2022/10/05 03:54:22;;;;;;;26.30;13.60;;;11.90;99.90;;;;;;4989608;28;20124;-77
2022/10/05 03:57:03;;;;;;;25.75;13.98;;;11.90;99.90;;;;;;5031137;28;20052;-77
2022/10/05 03:59:41;;;;;;;21.98;11.88;;;12.00;99.90;;;;;;5033835;28;20037;-76
2022/10/05 04:02:18;;;;;;;22.98;12.90;;;12.10;99.90;;;;;;5047741;28;20052;-76
2022/10/05 04:04:51;;;;;;;20.50;12.43;;;12.10;99.90;;;;;;5052238;28;20106;-78
2022/10/05 04:07:45;;;;;;;25.00;13.23;;;12.10;99.90;;;;;;5051851;28;20049;-78
2022/10/05 04:10:18;;;;;;;20.67;12.38;;;12.10;99.90;;;;;;5052044;28;20079;-77
2022/10/05 04:12:50;;;;;;;22.85;12.98;;;12.00;99.90;;;;;;5053659;28;20033;-76
2022/10/05 04:15:48;;;;;;;31.55;14.93;;;11.90;99.90;;;;;;5053709;28;20079;-78
2022/10/05 04:18:25;;;;;;;26.40;14.70;;;11.90;99.90;;;;;;5051624;28;20127;-77
2022/10/05 04:21:00;;;;;;;27.20;16.13;;;11.90;99.90;;;;;;5042297;28;20049;-77
2022/10/05 04:23:54;;;;;;;33.35;17.02;;;11.90;99.90;;;;;;5038718;28;20041;-77
2022/10/05 04:26:28;;;;;;;30.17;15.90;;;12.10;99.90;;;;;;5051681;28;20033;-77
2022/10/05 04:29:16;;;;;;;30.95;17.10;;;12.10;99.90;;;;;;5051825;28;20516;-77
2022/10/05 04:32:14;;;;;;;28.67;15.73;;;12.20;99.90;;;;;;5051746;28;20029;-77
2022/10/05 04:35:00;;;;;;;29.27;15.65;;;12.10;99.90;;;;;;5050765;28;20047;-77
2022/10/05 04:37:56;;;;;;;25.70;15.10;;;11.80;99.90;;;;;;5052880;28;20455;-77
2022/10/05 04:40:33;;;;;;;30.60;16.17;;;11.80;99.90;;;;;;5028904;28;20041;-77
2022/10/05 04:43:08;;;;;;;24.65;14.98;;;11.80;99.90;;;;;;5052088;28;20044;-78
2022/10/05 04:45:52;;;;;;;29.40;15.90;;;11.80;99.90;;;;;;5051637;28;20573;-78
2022/10/05 04:48:29;;;;;;;27.13;15.00;;;11.90;99.90;;;;;;5053541;28;20124;-78
2022/10/05 04:51:17;;;;;;;27.25;10.85;;;11.90;99.90;;;;;;5033488;28;20067;-77
2022/10/05 04:54:12;;;;;;;17.88;9.27;;;11.50;99.90;;;;;;5048884;28;20030;-78
2022/10/05 04:56:44;;;;;;;22.67;9.98;;;10.80;99.90;;;;;;5016297;28;20034;-77
2022/10/05 04:59:30;;;;;;;20.83;9.68;;;10.60;99.90;;;;;;5042612;28;20365;-78
2022/10/05 05:02:02;;;;;;;8.70;5.80;;;10.20;99.90;;;;;;5056008;28;20133;-77
2022/10/05 05:04:43;;;;;;;14.05;6.45;;;10.20;99.90;;;;;;5056031;28;20056;-77
2022/10/05 05:07:32;;;;;;;10.13;6.75;;;10.30;99.90;;;;;;5057565;28;20488;-77
2022/10/05 05:10:11;;;;;;;16.33;8.32;;;10.40;99.90;;;;;;5057240;28;20400;-77
2022/10/05 05:13:00;;;;;;;12.70;7.68;;;10.50;99.90;;;;;;5056440;28;20048;-78
2022/10/05 05:15:37;;;;;;;35.40;9.65;;;10.60;99.90;;;;;;5056319;28;20090;-78
2022/10/05 05:18:11;;;;;;;22.70;11.02;;;10.70;99.90;;;;;;5056529;28;20035;-78
2022/10/05 05:20:55;;;;;;;17.00;10.05;;;11.00;99.90;;;;;;5056556;28;20400;-78
2022/10/05 05:23:44;;;;;;;19.55;9.52;;;11.00;99.90;;;;;;5056773;28;20044;-78
2022/10/05 05:26:18;;;;;;;15.30;8.70;;;10.90;99.90;;;;;;5056906;28;20417;-77
2022/10/05 05:29:04;;;;;;;12.77;7.70;;;10.80;99.90;;;;;;5056892;28;20075;-79
2022/10/05 05:31:52;;;;;;;13.75;7.80;;;10.50;99.90;;;;;;5056268;28;20095;-79
2022/10/05 05:34:27;;;;;;;13.80;7.13;;;10.50;99.90;;;;;;5051863;28;20052;-79
2022/10/05 05:37:31;;;;;;;9.73;6.47;;;10.30;99.90;;;;;;5051186;28;20453;-76
2022/10/05 05:40:02;;;;;;;10.90;7.00;;;10.30;99.90;;;;;;5051817;28;20538;-76
2022/10/05 05:42:58;;;;;;;12.55;7.80;;;10.50;99.90;;;;;;5036460;28;20136;-78
2022/10/05 05:45:37;;;;;;;14.60;7.95;;;10.70;99.90;;;;;;5052101;28;20444;-78
2022/10/05 05:48:17;;;;;;;11.68;7.32;;;10.70;99.90;;;;;;5052130;28;20073;-78
2022/10/05 05:50:49;;;;;;;13.15;8.43;;;10.70;99.90;;;;;;5036796;28;20116;-76
2022/10/05 05:53:27;;;;;;;19.65;10.48;;;10.80;99.90;;;;;;5036709;28;20076;-78
2022/10/05 05:55:59;;;;;;;15.40;9.18;;;11.00;99.90;;;;;;5036605;28;20074;-78
2022/10/05 05:58:31;;;;;;;16.92;9.65;;;10.90;99.90;;;;;;5035262;28;20056;-77
2022/10/05 06:01:00;;;;;;;16.15;9.57;;;10.90;99.90;;;;;;5036515;28;20033;-77
2022/10/05 06:03:55;;;;;;;17.88;9.35;;;10.90;99.90;;;;;;5036524;28;20048;-77
2022/10/05 06:06:26;;;;;;;16.40;9.65;;;11.00;99.90;;;;;;5035941;28;20501;-77
2022/10/05 06:08:57;;;;;;;14.43;8.75;;;11.00;99.90;;;;;;5035776;28;20460;-75
2022/10/05 06:11:27;;;;;;;14.38;7.72;;;10.90;99.90;;;;;;5034811;28;20095;-76
2022/10/05 06:13:58;;;;;;;9.98;6.22;;;10.70;99.90;;;;;;5034973;28;20231;-77
2022/10/05 06:16:33;;;;;;;16.75;7.30;;;;;;;;;;5036349;28;20073;-74
2022/10/05 06:19:09;;;;;;;15.32;6.10;;;9.80;99.90;;;;;;5036148;28;20045;-76
2022/10/05 06:21:42;;;;;;;10.55;7.00;;;9.80;99.90;;;;;;5036225;28;20037;-76
2022/10/05 06:24:20;;;;;;;12.23;7.57;;;10.10;99.90;;;;;;5035960;28;20045;-75
2022/10/05 06:27:17;;;;;;;10.40;6.85;;;10.50;99.90;;;;;;5051338;28;20040;-75
2022/10/05 06:30:00;;;;;;;9.48;6.53;;;10.60;99.90;;;;;;5035918;28;20049;-78
2022/10/05 06:32:38;;;;;;;9.98;6.30;;;10.50;99.90;;;;;;5035953;28;20037;-76
2022/10/05 06:35:36;;;;;;;11.60;6.60;;;10.80;99.90;;;;;;5035851;28;20155;-77
2022/10/05 06:38:27;;;;;;;14.35;7.05;;;10.90;99.90;;;;;;5002069;28;20048;-77
2022/10/05 06:41:11;;;;;;;14.68;6.30;;;11.40;99.90;;;;;;5035809;28;20067;-78
2022/10/05 06:43:57;;;;;;;13.10;7.97;;;11.60;99.90;;;;;;5051077;28;20045;-78
2022/10/05 06:46:52;;;;;;;25.02;12.27;;;11.90;99.90;;;;;;5034965;28;20040;-77
2022/10/05 06:49:38;;;;;;;16.35;9.18;;;12.40;99.90;;;;;;5034060;28;20045;-77
2022/10/05 06:52:28;;;;;;;10.95;6.80;;;12.80;99.90;;;;;;5033058;28;20119;-75
2022/10/05 06:55:27;;;;;;;17.40;9.10;;;13.10;99.90;;;;;;5035095;28;20045;-76
2022/10/05 06:58:08;;;;;;;22.08;11.43;;;13.20;99.90;;;;;;5050301;28;20041;-76
2022/10/05 07:00:52;;;;;;;21.63;11.57;;;13.40;99.90;;;;;;5034743;28;20076;-77
2022/10/05 07:03:46;;;;;;;21.25;11.82;;;13.70;99.90;;;;;;5033009;28;20056;-77
2022/10/05 07:06:20;;;;;;;13.80;7.57;;;14.20;99.90;;;;;;5034324;28;20129;-75
2022/10/05 07:09:19;;;;;;;7.97;5.47;;;13.50;99.90;;;;;;5033658;28;20042;-75
2022/10/05 07:12:04;;;;;;;20.42;9.02;;;13.00;99.90;;;;;;5033212;28;20039;-76
2022/10/05 07:14:30;;;;;;;10.02;5.78;;;13.30;99.90;;;;;;5046901;28;20094;-77
2022/10/05 07:17:27;;;;;;;10.27;6.25;;;13.20;99.90;;;;;;5053144;28;20033;-77
2022/10/05 07:20:05;;;;;;;11.20;6.38;;;12.90;99.90;;;;;;5052979;28;20047;-77
2022/10/05 07:23:03;;;;;;;10.57;6.63;;;13.10;99.90;;;;;;5052019;28;20045;-77
2022/10/05 07:25:40;;;;;;;10.32;6.68;;;14.80;99.90;;;;;;5049926;28;20048;-76
2022/10/05 07:28:24;;;;;;;9.27;6.05;;;15.00;99.90;;;;;;5052399;28;20496;-77
2022/10/05 07:31:17;;;;;;;15.55;8.65;;;15.20;99.90;;;;;;5051447;28;20037;-76
2022/10/05 07:34:08;;;;;;;14.93;8.55;;;15.60;99.90;;;;;;5048198;28;20044;-76
2022/10/05 07:39:45;;;;;;;11.25;6.53;;;16.00;99.90;;;;;;5032760;28;20056;-77
2022/10/05 07:42:32;;;;;;;10.00;5.95;;;16.00;99.90;;;;;;5032419;28;20049;-77
2022/10/05 07:45:13;;;;;;;7.85;5.28;;;16.10;99.90;;;;;;5032634;28;20053;-76
2022/10/05 07:47:48;;;;;;;12.80;7.50;;;16.10;99.90;;;;;;5030623;28;20401;-76
2022/10/05 07:50:23;;;;;;;9.68;6.65;;;16.10;99.90;;;;;;5032440;28;20508;-76
2022/10/05 07:53:14;;;;;;;8.35;5.18;;;16.30;99.90;;;;;;5032612;28;20034;-76
2022/10/05 07:55:55;;;;;;;12.48;7.13;;;16.30;99.90;;;;;;5025959;28;20036;-77
2022/10/05 07:58:31;;;;;;;13.75;8.48;;;16.60;99.90;;;;;;5050600;28;20607;-77
2022/10/05 08:01:18;;;;;;;11.85;6.53;;;;;;;;;;5052284;28;20037;-77
2022/10/05 08:04:02;;;;;;;5.55;3.85;;;17.10;99.90;;;;;;5053180;28;20056;-77
2022/10/05 08:06:52;;;;;;;4.43;3.40;;;16.60;99.90;;;;;;5052613;28;20037;-77
2022/10/05 08:09:45;;;;;;;5.50;3.40;;;16.20;99.90;;;;;;5053611;28;20504;-78
2022/10/05 08:12:25;;;;;;;5.45;3.72;;;;;;;;;;5053914;28;20033;-79
2022/10/05 08:15:14;;;;;;;7.30;4.03;;;17.50;99.90;;;;;;5052848;28;20049;-79
2022/10/05 08:17:46;;;;;;;7.85;3.25;;;17.50;99.90;;;;;;5052964;28;20071;-79
2022/10/05 08:20:24;;;;;;;9.27;3.80;;;17.40;99.90;;;;;;5053107;28;20120;-79
2022/10/05 08:22:58;;;;;;;4.72;3.30;;;17.60;99.90;;;;;;5051142;28;20049;-79
2022/10/05 08:25:29;;;;;;;5.28;3.47;;;17.90;99.90;;;;;;5053675;28;20500;-79
2022/10/05 08:28:09;;;;;;;4.90;3.63;;;18.30;99.90;;;;;;5053918;28;20103;-79
2022/10/05 08:31:07;;;;;;;5.07;4.05;;;18.40;99.90;;;;;;5051719;28;20033;-79
2022/10/05 08:33:52;;;;;;;7.72;5.43;;;18.10;99.90;;;;;;5045690;28;20694;-76
2022/10/05 08:36:40;;;;;;;7.65;4.22;;;18.30;99.90;;;;;;5053632;28;20045;-78
2022/10/05 08:39:17;;;;;;;7.68;5.30;;;18.10;99.90;;;;;;5053623;28;20424;-79
2022/10/05 08:42:08;;;;;;;6.63;4.85;;;18.00;99.90;;;;;;5054115;28;20383;-79
2022/10/05 08:44:58;;;;;;;6.07;4.68;;;18.20;99.90;;;;;;5053730;28;20091;-77
2022/10/05 08:47:47;;;;;;;6.17;4.10;;;18.40;99.90;;;;;;5053007;28;20036;-78
2022/10/05 08:50:32;;;;;;;7.15;4.93;;;18.20;99.90;;;;;;5053600;28;20040;-79
2022/10/05 08:53:24;;;;;;;7.60;5.82;;;18.10;99.90;;;;;;5053351;28;20069;-79
2022/10/05 08:56:02;;;;;;;9.52;4.30;;;18.20;99.90;;;;;;5049068;28;20047;-79
2022/10/05 08:58:36;;;;;;;11.93;6.40;;;18.10;99.90;;;;;;5052387;28;20060;-79
2022/10/05 09:01:21;;;;;;;7.93;5.07;;;17.70;99.90;;;;;;5053665;28;20041;-79
2022/10/05 09:04:15;;;;;;;6.05;3.90;;;18.00;99.90;;;;;;5052364;28;20073;-79
2022/10/05 09:06:49;;;;;;;9.23;5.32;;;18.30;99.90;;;;;;5053317;28;20094;-78
2022/10/05 09:09:49;;;;;;;10.18;5.45;;;18.70;99.90;;;;;;5053516;28;20404;-79
2022/10/05 09:12:43;;;;;;;8.18;4.82;;;18.10;99.90;;;;;;5052227;28;20029;-79
2022/10/05 09:15:38;;;;;;;6.45;4.57;;;18.40;99.90;;;;;;5053493;28;20460;-77
2022/10/05 09:18:22;;;;;;;8.48;4.93;;;18.60;99.90;;;;;;5050891;28;20037;-79
2022/10/05 09:20:53;;;;;;;6.75;4.72;;;18.10;99.90;;;;;;5053330;28;20041;-77
2022/10/05 09:23:38;;;;;;;10.75;5.03;;;18.40;99.90;;;;;;5053287;28;20040;-77
2022/10/05 09:26:32;;;;;;;9.05;4.75;;;18.60;99.90;;;;;;5052929;28;20033;-78
2022/10/05 09:29:24;;;;;;;6.50;4.32;;;18.70;99.90;;;;;;5053867;28;20037;-80
2022/10/05 09:32:32;;;;;;;8.57;3.17;;;19.30;99.90;;;;;;5048322;28;20158;-80
2022/10/05 09:35:01;;;;;;;6.25;3.97;;;19.40;99.90;;;;;;5053409;28;20029;-79
2022/10/05 09:38:07;;;;;;;9.13;3.38;;;19.60;99.90;;;;;;5053434;28;20064;-80
2022/10/05 09:40:57;;;;;;;7.10;3.72;;;19.60;99.90;;;;;;5052041;28;20040;-80
2022/10/05 09:43:44;;;;;;;6.32;3.72;;;19.60;99.90;;;;;;5053374;28;20045;-81
2022/10/05 09:46:26;;;;;;;9.02;4.00;;;19.40;99.90;;;;;;5056896;28;20063;-80
2022/10/05 09:49:01;;;;;;;5.55;2.97;;;;;;;;;;5059275;28;20392;-80
2022/10/05 09:52:06;;;;;;;8.68;3.65;;;19.80;99.90;;;;;;5055242;28;20485;-79
2022/10/05 09:54:47;;;;;;;3.85;2.72;;;20.00;99.90;;;;;;5056632;28;20044;-79
2022/10/05 09:57:54;;;;;;;9.00;3.65;;;20.40;99.90;;;;;;5055230;28;20040;-79
2022/10/05 10:00:45;;;;;;;5.03;3.13;;;20.30;99.90;;;;;;5050895;28;20041;-79
2022/10/05 10:03:14;;;;;;;5.47;3.05;;;20.00;99.90;;;;;;5056389;28;20048;-79
2022/10/05 10:05:55;;;;;;;3.78;2.85;;;19.80;99.90;;;;;;5056571;28;20037;-79
2022/10/05 10:08:30;;;;;;;5.65;3.22;;;20.20;99.90;;;;;;5056379;28;20111;-79
2022/10/05 10:11:07;;;;;;;6.30;3.15;;;20.50;99.90;;;;;;5056176;28;20035;-79
2022/10/05 10:14:09;;;;;;;6.78;3.97;;;20.30;99.90;;;;;;5054942;28;20083;-79
2022/10/05 10:16:38;;;;;;;6.25;2.95;;;20.50;99.90;;;;;;5055656;28;20033;-79
2022/10/05 10:19:12;;;;;;;5.57;2.20;;;20.60;99.90;;;;;;5055521;28;20053;-79
2022/10/05 10:22:16;;;;;;;4.03;2.22;;;20.80;99.90;;;;;;5050066;28;20067;-79
2022/10/05 10:25:08;;;;;;;3.58;2.10;;;21.00;99.90;;;;;;5055872;28;20033;-75
2022/10/05 10:28:12;;;;;;;4.40;2.50;;;20.90;99.90;;;;;;5055972;28;20098;-80
2022/10/05 10:30:44;;;;;;;4.22;2.58;;;20.80;99.90;;;;;;5046618;28;20036;-80
2022/10/05 10:33:28;;;;;;;8.43;2.83;;;20.50;99.90;;;;;;5055662;28;20048;-80
2022/10/05 10:36:03;;;;;;;8.82;3.00;;;20.50;99.90;;;;;;5055036;28;20098;-79
2022/10/05 10:38:32;;;;;;;4.60;2.25;;;20.80;99.90;;;;;;5055525;28;20067;-78
2022/10/05 10:41:19;;;;;;;4.95;2.55;;;20.90;99.90;;;;;;5055736;28;20029;-79
2022/10/05 10:44:22;;;;;;;7.28;2.08;;;21.00;99.90;;;;;;5035782;28;20045;-79
2022/10/05 10:47:07;;;;;;;4.10;2.15;;;20.80;99.90;;;;;;5035541;28;20216;-78
2022/10/05 10:49:54;;;;;;;4.63;2.60;;;20.90;99.90;;;;;;5035562;28;20037;-77
2022/10/05 10:52:40;;;;;;;6.18;2.67;;;20.80;99.90;;;;;;5035465;28;20045;-79
2022/10/05 10:55:17;;;;;;;4.90;2.92;;;21.00;99.90;;;;;;5034931;28;20044;-79
2022/10/05 10:57:51;;;;;;;4.75;2.40;;;21.20;99.90;;;;;;5034759;28;20072;-77
2022/10/05 11:00:41;;;;;;;3.97;2.10;;;21.00;99.90;;;;;;5050456;28;20033;-77
2022/10/05 11:03:15;;;;;;;8.90;2.88;;;21.60;99.90;;;;;;5035117;28;20505;-77
2022/10/05 11:06:15;;;;;;;6.05;2.60;;;21.20;99.90;;;;;;5050232;28;20032;-78
2022/10/05 11:08:41;;;;;;;4.38;2.67;;;21.10;99.90;;;;;;5040487;28;20487;-80
2022/10/05 11:11:35;;;;;;;4.85;2.90;;;21.30;99.90;;;;;;5052354;28;20076;-78
2022/10/05 11:14:32;;;;;;;4.65;3.00;;;21.40;99.90;;;;;;5064053;28;20098;-77
2022/10/05 11:17:17;;;;;;;5.40;2.92;;;21.20;99.90;;;;;;5052541;28;20049;-77
2022/10/05 11:19:42;;;;;;;8.73;4.30;;;21.30;99.90;;;;;;5051759;28;20041;-80
2022/10/05 11:22:39;;;;;;;6.00;3.65;;;21.40;99.90;;;;;;5052490;28;20048;-77
2022/10/05 11:25:17;;;;;;;8.27;3.13;;;21.30;99.90;;;;;;5048680;28;20106;-77
2022/10/05 11:28:09;;;;;;;5.25;2.60;;;21.20;99.90;;;;;;5052721;28;20029;-77
2022/10/05 11:30:53;;;;;;;6.88;2.83;;;21.20;99.90;;;;;;5050155;28;20045;-74
2022/10/05 11:34:02;;;;;;;5.78;3.13;;;21.30;99.90;;;;;;5066543;28;20037;-74
2022/10/05 11:36:46;;;;;;;7.03;2.63;;;21.30;99.90;;;;;;5051358;28;20476;-76
2022/10/05 11:39:32;;;;;;;3.80;1.90;;;21.20;99.90;;;;;;5051186;28;20061;-78
2022/10/05 11:42:17;;;;;;;9.95;2.85;;;21.10;99.90;;;;;;5049956;28;20375;-76
2022/10/05 11:45:18;;;;;;;6.82;2.92;;;21.50;99.90;;;;;;5051774;28;20041;-75
2022/10/05 11:48:19;;;;;;;5.15;2.63;;;21.70;99.90;;;;;;5036630;28;20077;-74
2022/10/05 11:51:10;;;;;;;7.35;2.33;;;21.50;99.90;;;;;;5053995;28;20527;-81
2022/10/05 11:53:56;;;;;;;6.90;2.00;;;21.30;99.90;;;;;;5051643;28;20459;-78
2022/10/05 11:56:30;;;;;;;5.25;2.00;;;21.70;99.90;;;;;;5042578;28;20520;-80
2022/10/05 11:59:38;;;;;;;5.35;2.47;;;21.80;99.90;;;;;;5049780;28;20412;-81
2022/10/05 12:02:38;;;;;;;2.63;1.85;;;21.80;99.90;;;;;;5049941;28;20153;-82
2022/10/05 12:05:22;;;;;;;4.93;2.73;;;21.90;99.90;;;;;;5050197;28;20033;-84
2022/10/05 12:08:05;;;;;;;3.95;2.03;;;22.30;99.90;;;;;;5052423;28;20441;-80
2022/10/05 12:10:54;;;;;;;4.85;1.92;;;22.00;99.90;;;;;;5045386;28;20029;-81
2022/10/05 12:13:32;;;;;;;7.15;1.88;;;22.00;99.90;;;;;;5037007;28;21474;-81
2022/10/05 12:16:16;;;;;;;7.05;2.17;;;22.00;99.90;;;;;;5050284;28;20073;-80
2022/10/05 12:18:59;;;;;;;4.43;1.90;;;22.10;99.90;;;;;;5048345;28;20500;-82
2022/10/05 12:21:47;;;;;;;3.13;1.65;;;22.30;99.90;;;;;;5037751;28;20051;-81
2022/10/05 12:24:30;;;;;;;5.03;2.00;;;22.30;99.90;;;;;;5033414;28;20048;-81
2022/10/05 12:27:28;;;;;;;3.65;2.17;;;22.10;99.90;;;;;;5033553;28;20627;-81
2022/10/05 12:30:02;;;;;;;3.17;1.88;;;22.00;99.90;;;;;;5029282;28;20060;-81
2022/10/05 12:32:52;;;;;;;2.92;1.77;;;22.30;99.90;;;;;;5031447;28;20073;-81
2022/10/05 12:35:30;;;;;;;4.47;2.17;;;22.30;99.90;;;;;;5047770;28;20041;-80
2022/10/05 12:38:18;;;;;;;7.28;2.53;;;22.50;99.90;;;;;;5031907;28;20102;-80
2022/10/05 12:40:51;;;;;;;3.42;1.50;;;22.50;99.90;;;;;;5032032;28;20501;-78
2022/10/05 12:43:50;;;;;;;4.00;1.85;;;22.60;99.90;;;;;;5031493;28;20056;-81
2022/10/05 12:46:34;;;;;;;1.63;1.20;;;22.50;99.90;;;;;;5031192;28;20120;-80
2022/10/05 12:49:12;;;;;;;3.65;1.80;;;22.30;99.90;;;;;;5032127;28;20049;-80
2022/10/05 12:51:54;;;;;;;22.40;10.23;;;22.40;99.90;;;;;;5031800;28;20041;-80
2022/10/05 12:54:38;;;;;;;3.95;1.60;;;22.30;99.90;;;;;;5032603;28;20073;-81
2022/10/05 12:57:46;;;;;;;3.75;2.40;;;22.40;99.90;;;;;;5031009;28;20053;-80
2022/10/05 13:00:19;;;;;;;7.55;3.08;;;22.30;99.90;;;;;;5031159;28;20046;-80
2022/10/05 13:02:45;;;;;;;3.97;1.75;;;22.40;99.90;;;;;;5031497;28;20049;-80
2022/10/05 13:05:14;;;;;;;3.40;1.45;;;22.40;99.90;;;;;;5031004;28;20065;-79
2022/10/05 13:08:01;;;;;;;3.28;1.02;;;22.40;99.90;;;;;;5031441;28;20076;-80
2022/10/05 13:10:32;;;;;;;4.95;2.15;;;22.50;99.90;;;;;;5030337;28;20033;-80
2022/10/05 13:13:32;;;;;;;3.67;1.27;;;22.50;99.90;;;;;;5030182;28;20069;-80
2022/10/05 13:16:22;;;;;;;2.97;1.30;;;22.30;99.90;;;;;;5031596;28;20037;-80
2022/10/05 13:19:26;;;;;;;1.10;0.83;;;22.40;99.90;;;;;;5030979;28;20562;-80
2022/10/05 13:22:01;;;;;;;1.42;0.80;;;22.40;99.90;;;;;;5001401;28;20050;-80
2022/10/05 13:24:36;;;;;;;3.97;0.75;;;22.50;99.90;;;;;;5035308;28;20041;-79
2022/10/05 13:27:12;;;;;;;1.63;0.70;;;22.60;99.90;;;;;;5034774;28;20510;-80
2022/10/05 13:30:04;;;;;;;3.53;0.80;;;22.60;99.90;;;;;;5035915;28;20073;-79
2022/10/05 13:32:36;;;;;;;5.05;1.13;;;22.40;99.90;;;;;;5040040;28;20590;-79
2022/10/05 13:35:05;;;;;;;1.98;1.10;;;22.40;99.90;;;;;;5049998;28;20132;-80
2022/10/05 13:37:42;;;;;;;1.90;1.05;;;22.40;99.90;;;;;;5050745;28;20072;-80
2022/10/05 13:40:11;;;;;;;3.65;0.88;;;22.60;99.90;;;;;;5049987;28;20095;-80
2022/10/05 13:42:57;;;;;;;0.73;0.63;;;22.80;99.90;;;;;;5034377;28;20049;-81
2022/10/05 13:45:28;;;;;;;1.52;0.80;;;22.80;99.90;;;;;;5036075;28;20518;-80
2022/10/05 13:48:12;;;;;;;4.68;1.20;;;22.60;99.90;;;;;;5034881;28;20435;-81
2022/10/05 13:50:54;;;;;;;4.47;1.13;;;22.50;99.90;;;;;;5049955;28;20501;-80
2022/10/05 13:53:38;;;;;;;4.63;0.85;;;22.50;99.90;;;;;;5034879;28;20048;-82
2022/10/05 13:56:20;;;;;;;3.05;0.63;;;22.40;99.90;;;;;;5035416;28;20563;-80
2022/10/05 13:58:54;;;;;;;2.88;0.80;;;22.40;99.90;;;;;;5036642;28;20118;-80
2022/10/05 14:01:46;;;;;;;1.27;0.60;;;22.50;99.90;;;;;;5036086;28;20048;-81
2022/10/05 14:04:26;;;;;;;1.90;0.63;;;22.50;99.90;;;;;;5036318;28;20112;-78
2022/10/05 14:06:52;;;;;;;2.67;0.60;;;22.50;99.90;;;;;;5036522;28;20037;-79